createdAt,value
2017-12-13T00:00:27.402Z,42.90
2017-12-13T00:02:54.935Z,40.00
2017-12-13T00:05:22.521Z,31.07
2017-12-13T00:07:50.045Z,43.40
2017-12-13T00:10:17.574Z,44.40
2017-12-13T00:12:45.129Z,39.27
2017-12-13T00:15:12.712Z,42.17
2017-12-13T00:17:40.237Z,42.67
2017-12-13T00:20:07.768Z,42.20
2017-12-13T00:22:35.355Z,41.77
2017-12-13T00:25:02.875Z,39.37
2017-12-13T00:27:30.393Z,42.40
2017-12-13T00:29:57.964Z,41.53
2017-12-13T00:32:25.511Z,39.80
2017-12-13T00:34:53.098Z,42.17
2017-12-13T00:37:20.649Z,46.03
2017-12-13T00:39:48.180Z,41.10
2017-12-13T00:42:15.759Z,34.30
2017-12-13T00:44:43.279Z,36.80
2017-12-13T00:47:10.813Z,32.90
2017-12-13T00:49:38.388Z,36.70
2017-12-13T00:52:05.936Z,38.63
2017-12-13T00:54:33.468Z,34.47
2017-12-13T00:57:01.078Z,39.13
2017-12-13T00:59:28.605Z,31.60
2017-12-13T01:01:56.155Z,32.20
2017-12-13T01:04:23.710Z,30.73
2017-12-13T01:06:51.251Z,31.30
2017-12-13T01:09:18.799Z,34.73
2017-12-13T01:11:46.315Z,34.00
2017-12-13T01:14:13.888Z,37.03
2017-12-13T01:16:41.421Z,37.80
2017-12-13T01:19:08.952Z,33.27
2017-12-13T01:21:36.502Z,36.73
2017-12-13T01:24:04.053Z,37.47
2017-12-13T01:26:31.628Z,37.37
2017-12-13T01:28:59.163Z,36.80
2017-12-13T01:31:26.683Z,39.13
2017-12-13T01:33:54.224Z,34.27
2017-12-13T01:36:21.756Z,29.33
2017-12-13T01:38:49.336Z,37.87
2017-12-13T01:41:16.863Z,35.40
2017-12-13T01:43:44.393Z,35.00
2017-12-13T01:46:11.974Z,35.97
2017-12-13T01:48:39.556Z,34.93
2017-12-13T01:51:07.088Z,34.27
2017-12-13T01:53:34.664Z,35.43
2017-12-13T01:56:02.188Z,34.67
2017-12-13T01:58:29.711Z,35.37
2017-12-13T02:00:57.288Z,32.30
2017-12-13T02:03:24.855Z,32.80
2017-12-13T02:05:52.393Z,33.27
2017-12-13T02:08:19.926Z,34.00
2017-12-13T02:10:47.529Z,30.63
2017-12-13T02:13:15.044Z,32.70
2017-12-13T02:15:42.577Z,34.83
2017-12-13T02:18:10.116Z,30.40
2017-12-13T02:20:37.664Z,35.50
2017-12-13T02:23:05.225Z,30.30
2017-12-13T02:25:32.760Z,32.13
2017-12-13T02:28:00.313Z,30.20
2017-12-13T02:30:27.841Z,30.77
2017-12-13T02:32:55.419Z,29.40
2017-12-13T02:35:22.950Z,29.37
2017-12-13T02:37:50.474Z,30.80
2017-12-13T02:40:29.937Z,29.73
2017-12-13T02:42:57.457Z,25.77
2017-12-13T02:45:24.976Z,28.37
2017-12-13T02:47:52.529Z,28.80
2017-12-13T02:50:20.050Z,28.30
2017-12-13T02:52:47.618Z,27.13
2017-12-13T02:55:15.160Z,23.97
2017-12-13T02:57:42.692Z,28.90
2017-12-13T03:00:10.257Z,24.03
2017-12-13T03:02:37.783Z,18.77
2017-12-13T03:05:05.339Z,21.60
2017-12-13T03:07:32.902Z,24.57
2017-12-13T03:10:00.425Z,25.27
2017-12-13T03:12:27.945Z,22.87
2017-12-13T03:14:55.515Z,22.90
2017-12-13T03:17:23.048Z,18.40
2017-12-13T03:19:50.559Z,20.83
2017-12-13T03:22:18.101Z,22.17
2017-12-13T03:24:45.616Z,18.37
2017-12-13T03:27:13.195Z,22.23
2017-12-13T03:29:40.718Z,20.17
2017-12-13T03:32:08.267Z,22.20
2017-12-13T03:34:35.784Z,20.30
2017-12-13T03:37:03.354Z,21.30
2017-12-13T03:39:30.868Z,19.63
2017-12-13T03:41:58.379Z,21.30
2017-12-13T03:44:25.929Z,20.40
2017-12-13T03:46:53.474Z,20.03
2017-12-13T03:49:20.993Z,17.93
2017-12-13T03:51:48.559Z,18.23
2017-12-13T03:54:16.088Z,17.17
2017-12-13T03:56:43.616Z,18.70
2017-12-13T03:59:11.183Z,19.80
2017-12-13T04:01:38.704Z,15.90
2017-12-13T04:04:06.233Z,16.33
2017-12-13T04:06:33.773Z,16.27
2017-12-13T04:09:01.292Z,15.90
2017-12-13T04:11:28.827Z,15.93
2017-12-13T04:13:56.404Z,13.00
2017-12-13T04:16:23.935Z,17.80
2017-12-13T04:18:51.452Z,15.80
2017-12-13T04:21:19.029Z,16.40
2017-12-13T04:23:46.549Z,13.20
2017-12-13T04:26:14.085Z,14.13
2017-12-13T04:28:41.644Z,15.87
2017-12-13T04:31:09.168Z,14.00
2017-12-13T04:33:36.696Z,15.27
2017-12-13T04:36:04.237Z,15.70
2017-12-13T04:38:31.757Z,14.77
2017-12-13T04:40:59.320Z,15.60
2017-12-13T04:43:26.845Z,15.40
2017-12-13T04:45:54.368Z,14.47
2017-12-13T04:48:21.935Z,14.10
2017-12-13T04:50:49.463Z,14.43
2017-12-13T04:53:16.990Z,14.60
2017-12-13T04:55:44.538Z,14.03
2017-12-13T04:58:12.060Z,14.50
2017-12-13T05:00:39.609Z,14.47
2017-12-13T05:03:07.129Z,11.47
2017-12-13T05:05:34.693Z,12.37
2017-12-13T05:08:02.208Z,12.13
2017-12-13T05:10:29.720Z,13.43
2017-12-13T05:12:57.270Z,12.30
2017-12-13T05:15:24.790Z,12.13
2017-12-13T05:17:52.335Z,11.77
2017-12-13T05:20:19.921Z,7.97
2017-12-13T05:22:47.498Z,13.10
2017-12-13T05:25:15.030Z,11.83
2017-12-13T05:27:42.539Z,12.20
2017-12-13T05:30:10.109Z,12.47
2017-12-13T05:32:37.621Z,12.53
2017-12-13T05:35:05.146Z,10.50
2017-12-13T05:37:32.686Z,13.33
2017-12-13T05:40:00.191Z,13.57
2017-12-13T05:42:27.751Z,10.47
2017-12-13T05:44:55.267Z,11.73
2017-12-13T05:47:22.793Z,10.40
2017-12-13T05:49:50.359Z,12.00
2017-12-13T05:52:17.875Z,10.70
2017-12-13T05:54:45.406Z,11.87
2017-12-13T05:57:12.972Z,11.47
2017-12-13T05:59:40.497Z,8.10
2017-12-13T06:02:08.959Z,11.20
2017-12-13T06:04:36.528Z,7.63
2017-12-13T06:07:04.046Z,9.93
2017-12-13T06:09:31.559Z,10.40
2017-12-13T06:11:59.163Z,10.50
2017-12-13T06:14:26.709Z,10.20
2017-12-13T06:16:54.219Z,10.43
2017-12-13T06:19:21.785Z,8.67
2017-12-13T06:21:49.283Z,8.57
2017-12-13T06:24:16.835Z,8.50
2017-12-13T06:26:44.387Z,9.23
2017-12-13T06:29:11.886Z,10.53
2017-12-13T06:31:39.423Z,10.03
2017-12-13T06:34:06.981Z,9.47
2017-12-13T06:36:34.499Z,11.07
2017-12-13T06:39:02.019Z,10.60
2017-12-13T06:41:29.580Z,9.70
2017-12-13T06:43:57.088Z,10.70
2017-12-13T06:46:24.600Z,9.17
2017-12-13T06:48:52.168Z,9.50
2017-12-13T06:51:19.685Z,10.10
2017-12-13T06:53:47.192Z,8.57
2017-12-13T06:56:14.718Z,8.80
2017-12-13T06:58:42.237Z,9.27
2017-12-13T07:01:09.801Z,8.03
2017-12-13T07:03:37.303Z,8.57
2017-12-13T07:06:04.817Z,8.07
2017-12-13T07:08:32.381Z,10.07
2017-12-13T07:10:59.889Z,8.40
2017-12-13T07:13:27.395Z,8.77
2017-12-13T07:15:54.929Z,6.80
2017-12-13T07:18:22.479Z,8.23
2017-12-13T07:20:49.997Z,7.77
2017-12-13T07:23:17.508Z,7.40
2017-12-13T07:25:45.049Z,8.27
2017-12-13T07:28:12.570Z,7.30
2017-12-13T07:30:40.136Z,7.83
2017-12-13T07:33:07.640Z,8.67
2017-12-13T07:35:35.162Z,7.03
2017-12-13T07:38:02.736Z,8.73
2017-12-13T07:40:30.240Z,6.63
2017-12-13T07:42:57.756Z,6.23
2017-12-13T07:45:25.371Z,8.37
2017-12-13T07:47:52.867Z,8.30
2017-12-13T07:50:20.372Z,7.60
2017-12-13T07:52:47.924Z,7.67
2017-12-13T07:55:15.432Z,7.17
2017-12-13T07:57:42.940Z,7.40
2017-12-13T08:00:10.506Z,8.07
2017-12-13T08:02:38.008Z,8.00
2017-12-13T08:05:05.511Z,8.87
2017-12-13T08:07:33.072Z,9.13
2017-12-13T08:10:00.578Z,9.30
2017-12-13T08:12:28.093Z,9.03
2017-12-13T08:14:55.640Z,10.63
2017-12-13T08:17:23.206Z,8.27
2017-12-13T08:19:50.712Z,9.17
2017-12-13T08:22:18.224Z,9.67
2017-12-13T08:24:45.756Z,9.13
2017-12-13T08:27:13.288Z,8.27
2017-12-13T08:29:40.789Z,9.20
2017-12-13T08:32:08.366Z,10.40
2017-12-13T08:34:35.871Z,9.17
2017-12-13T08:37:03.393Z,9.40
2017-12-13T08:39:30.965Z,6.53
2017-12-13T08:41:58.474Z,9.40
2017-12-13T08:44:25.988Z,8.70
2017-12-13T08:46:53.526Z,8.10
2017-12-13T08:49:21.045Z,9.33
2017-12-13T08:51:48.613Z,7.07
2017-12-13T08:54:16.129Z,9.00
2017-12-13T08:56:43.652Z,9.17
2017-12-13T08:59:11.219Z,9.60
2017-12-13T09:01:38.724Z,8.47
2017-12-13T09:04:06.219Z,9.00
2017-12-13T09:06:33.804Z,8.77
2017-12-13T09:09:01.320Z,9.23
2017-12-13T09:11:28.821Z,6.53
2017-12-13T09:13:56.357Z,9.20
2017-12-13T09:16:23.916Z,8.17
2017-12-13T09:18:51.494Z,9.10
2017-12-13T09:21:19.013Z,8.70
2017-12-13T09:23:46.555Z,9.63
2017-12-13T09:26:14.079Z,10.77
2017-12-13T09:28:41.610Z,9.53
2017-12-13T09:31:09.152Z,9.93
2017-12-13T09:33:36.655Z,9.77
2017-12-13T09:36:04.211Z,9.17
2017-12-13T09:38:31.730Z,9.50
2017-12-13T09:40:59.254Z,8.37
2017-12-13T09:43:26.813Z,9.20
2017-12-13T09:45:54.321Z,9.80
2017-12-13T09:48:21.840Z,9.40
2017-12-13T09:50:49.398Z,6.30
2017-12-13T09:53:16.912Z,10.00
2017-12-13T09:55:44.439Z,8.33
2017-12-13T09:58:12.004Z,11.30
2017-12-13T10:00:39.532Z,11.37
2017-12-13T10:03:07.052Z,8.70
2017-12-13T10:05:34.592Z,8.00
2017-12-13T10:08:02.173Z,9.03
2017-12-13T10:10:29.721Z,10.07
2017-12-13T10:12:57.232Z,8.37
2017-12-13T10:15:24.752Z,9.13
2017-12-13T10:17:52.282Z,8.70
2017-12-13T10:20:19.831Z,9.03
2017-12-13T10:22:47.393Z,7.30
2017-12-13T10:25:14.904Z,8.63
2017-12-13T10:27:42.425Z,7.50
2017-12-13T10:30:09.980Z,7.57
2017-12-13T10:32:37.498Z,7.90
2017-12-13T10:35:05.008Z,8.30
2017-12-13T10:37:32.545Z,9.23
2017-12-13T10:40:00.057Z,8.37
2017-12-13T10:42:27.611Z,8.07
2017-12-13T10:44:55.134Z,7.87
2017-12-13T10:47:22.650Z,8.80
2017-12-13T10:49:50.201Z,7.33
2017-12-13T10:52:17.709Z,6.80
2017-12-13T10:54:45.207Z,5.67
2017-12-13T10:57:12.773Z,7.60
2017-12-13T10:59:40.281Z,8.17
2017-12-13T11:02:07.824Z,8.33
2017-12-13T11:04:35.385Z,7.40
2017-12-13T11:07:02.893Z,6.10
2017-12-13T11:09:30.391Z,7.63
2017-12-13T11:11:57.930Z,5.90
2017-12-13T11:14:25.486Z,8.13
2017-12-13T11:16:53.001Z,6.67
2017-12-13T11:19:20.531Z,6.57
2017-12-13T11:21:48.053Z,6.40
2017-12-13T11:24:15.619Z,6.63
2017-12-13T11:26:43.116Z,4.97
2017-12-13T11:29:10.643Z,6.40
2017-12-13T11:31:38.224Z,6.73
2017-12-13T11:34:05.732Z,6.10
2017-12-13T11:36:33.249Z,5.60
2017-12-13T11:39:00.779Z,6.20
2017-12-13T11:41:28.285Z,6.90
2017-12-13T11:43:55.802Z,6.23
2017-12-13T11:46:23.366Z,6.50
2017-12-13T11:48:50.873Z,6.53
2017-12-13T11:51:18.379Z,6.23
2017-12-13T11:53:45.924Z,7.00
2017-12-13T11:56:13.445Z,6.50
2017-12-13T11:58:41.009Z,5.77
2017-12-13T12:01:08.534Z,7.37
2017-12-13T12:03:36.048Z,7.27
2017-12-13T12:06:03.598Z,5.83
2017-12-13T12:08:31.136Z,6.60
2017-12-13T12:10:58.631Z,5.93
2017-12-13T12:13:26.160Z,6.93
2017-12-13T12:15:53.692Z,7.10
2017-12-13T12:18:21.241Z,6.80
2017-12-13T12:20:48.743Z,5.90
2017-12-13T12:23:16.280Z,5.40
2017-12-13T12:25:43.784Z,6.47
2017-12-13T12:28:11.343Z,6.90
2017-12-13T12:30:38.843Z,5.80
2017-12-13T12:33:06.347Z,5.53
2017-12-13T12:35:33.877Z,7.00
2017-12-13T12:38:01.428Z,5.47
2017-12-13T12:40:28.992Z,6.47
2017-12-13T12:42:56.504Z,5.80
2017-12-13T12:45:24.020Z,5.53
2017-12-13T12:47:51.568Z,6.07
2017-12-13T12:50:19.076Z,6.37
2017-12-13T12:52:46.588Z,5.37
2017-12-13T12:55:14.119Z,5.03
2017-12-13T12:57:41.619Z,5.40
2017-12-13T13:00:09.184Z,5.00
2017-12-13T13:02:36.688Z,5.30
2017-12-13T13:05:04.197Z,5.00
2017-12-13T13:07:31.760Z,4.47
2017-12-13T13:09:59.272Z,5.20
2017-12-13T13:12:26.781Z,4.30
2017-12-13T13:14:54.335Z,4.90
2017-12-13T13:17:21.853Z,3.50
2017-12-13T13:19:49.348Z,4.03
2017-12-13T13:22:16.881Z,3.83
2017-12-13T13:24:44.384Z,2.80
2017-12-13T13:27:11.956Z,3.23
2017-12-13T13:29:39.484Z,3.23
2017-12-13T13:32:07.038Z,3.47
2017-12-13T13:34:34.592Z,3.50
2017-12-13T13:37:02.096Z,3.60
2017-12-13T13:39:29.608Z,4.20
2017-12-13T13:41:57.156Z,3.53
2017-12-13T13:44:24.665Z,3.53
2017-12-13T13:46:52.171Z,4.23
2017-12-13T13:49:19.733Z,5.10
2017-12-13T13:51:47.245Z,3.87
2017-12-13T13:54:14.752Z,5.00
2017-12-13T13:56:42.295Z,4.50
2017-12-13T13:59:09.792Z,4.03
2017-12-13T14:01:37.301Z,4.00
2017-12-13T14:04:04.831Z,3.90
2017-12-13T14:06:32.326Z,4.33
2017-12-13T14:08:59.905Z,4.80
2017-12-13T14:11:27.408Z,5.30
2017-12-13T14:13:54.925Z,5.10
2017-12-13T14:16:22.484Z,5.57
2017-12-13T14:18:50.005Z,4.93
2017-12-13T14:21:17.536Z,5.20
2017-12-13T14:23:45.111Z,5.50
2017-12-13T14:26:12.628Z,6.13
2017-12-13T14:28:40.144Z,5.40
2017-12-13T14:31:07.717Z,6.37
2017-12-13T14:33:35.239Z,5.73
2017-12-13T14:36:02.744Z,5.77
2017-12-13T14:38:30.305Z,5.67
2017-12-13T14:40:57.826Z,6.47
2017-12-13T14:43:25.345Z,7.30
2017-12-13T14:45:52.885Z,7.70
2017-12-13T14:48:20.426Z,6.80
2017-12-13T14:50:47.944Z,9.77
2017-12-13T14:53:15.487Z,8.87
2017-12-13T14:55:43.069Z,10.33
2017-12-13T14:58:10.576Z,9.77
2017-12-13T15:00:38.835Z,9.70
2017-12-13T15:03:06.408Z,13.33
2017-12-13T15:05:33.930Z,12.33
2017-12-13T15:08:01.457Z,11.97
2017-12-13T15:10:29.020Z,12.97
2017-12-13T15:12:56.537Z,14.00
2017-12-13T15:15:24.056Z,15.63
2017-12-13T15:17:51.620Z,15.70
2017-12-13T15:20:19.142Z,20.53
2017-12-13T15:22:46.647Z,19.57
2017-12-13T15:25:14.216Z,17.53
2017-12-13T15:27:41.732Z,16.77
2017-12-13T15:30:09.309Z,21.03
2017-12-13T15:32:36.850Z,17.80
2017-12-13T15:35:04.432Z,17.50
2017-12-13T15:37:31.953Z,18.90
2017-12-13T15:39:59.482Z,19.87
2017-12-13T15:42:27.048Z,21.77
2017-12-13T15:44:54.571Z,20.60
2017-12-13T15:47:22.084Z,21.73
2017-12-13T15:49:49.662Z,19.67
2017-12-13T15:52:17.192Z,19.13
2017-12-13T15:54:44.736Z,22.50
2017-12-13T15:57:12.305Z,16.57
2017-12-13T15:59:39.819Z,20.50
2017-12-13T16:02:07.332Z,21.20
2017-12-13T16:04:34.897Z,22.77
2017-12-13T16:07:02.412Z,22.03
2017-12-13T16:09:29.928Z,22.33
2017-12-13T16:11:57.484Z,21.87
2017-12-13T16:14:25.000Z,20.57
2017-12-13T16:16:52.568Z,22.17
2017-12-13T16:19:20.095Z,22.60
2017-12-13T16:21:47.604Z,21.20
2017-12-13T16:24:15.172Z,22.37
2017-12-13T16:26:42.697Z,22.30
2017-12-13T16:29:10.222Z,23.83
2017-12-13T16:31:37.770Z,23.20
2017-12-13T16:34:05.280Z,23.60
2017-12-13T16:36:32.844Z,22.40
2017-12-13T16:39:00.360Z,25.30
2017-12-13T16:41:27.881Z,24.70
2017-12-13T16:43:55.427Z,25.30
2017-12-13T16:46:22.952Z,26.77
2017-12-13T16:48:50.486Z,22.83
2017-12-13T16:51:18.049Z,24.33
2017-12-13T16:53:45.576Z,24.70
2017-12-13T16:56:13.089Z,24.33
2017-12-13T16:58:40.636Z,21.33
2017-12-13T17:01:08.169Z,19.47
2017-12-13T17:03:35.681Z,22.23
2017-12-13T17:06:03.258Z,23.17
2017-12-13T17:08:30.821Z,14.40
2017-12-13T17:10:58.332Z,21.63
2017-12-13T17:13:25.918Z,20.50
2017-12-13T17:15:53.501Z,20.90
2017-12-13T17:18:21.007Z,18.47
2017-12-13T17:20:48.572Z,16.87
2017-12-13T17:23:16.089Z,17.07
2017-12-13T17:25:43.623Z,15.93
2017-12-13T17:28:11.161Z,17.23
2017-12-13T17:30:38.676Z,17.67
2017-12-13T17:33:06.212Z,16.33
2017-12-13T17:35:33.759Z,16.10
2017-12-13T17:38:01.264Z,16.73
2017-12-13T17:40:28.783Z,16.80
2017-12-13T17:42:56.372Z,15.53
2017-12-13T17:45:23.892Z,16.47
2017-12-13T17:47:51.428Z,15.70
2017-12-13T17:50:18.965Z,14.33
2017-12-13T17:52:46.532Z,14.73
2017-12-13T17:55:14.044Z,14.57
2017-12-13T17:57:41.561Z,12.93
2017-12-13T18:00:09.116Z,14.77
2017-12-13T18:02:36.623Z,13.17
2017-12-13T18:05:04.180Z,12.87
2017-12-13T18:07:31.725Z,12.20
2017-12-13T18:09:59.246Z,14.17
2017-12-13T18:12:26.796Z,13.07
2017-12-13T18:14:54.309Z,12.53
2017-12-13T18:17:21.873Z,13.33
2017-12-13T18:19:49.384Z,13.87
2017-12-13T18:22:16.896Z,14.57
2017-12-13T18:24:44.433Z,13.83
2017-12-13T18:27:11.947Z,13.80
2017-12-13T18:29:39.479Z,13.13
2017-12-13T18:32:07.043Z,12.37
2017-12-13T18:34:34.561Z,12.30
2017-12-13T18:37:02.073Z,13.33
2017-12-13T18:39:29.624Z,13.00
2017-12-13T18:41:57.155Z,12.03
2017-12-13T18:44:24.728Z,14.80
2017-12-13T18:46:52.262Z,16.10
2017-12-13T18:49:19.784Z,15.70
2017-12-13T18:51:47.361Z,15.90
2017-12-13T18:54:14.908Z,14.70
2017-12-13T18:56:42.436Z,16.90
2017-12-13T18:59:10.005Z,15.43
2017-12-13T19:01:37.543Z,17.77
2017-12-13T19:04:05.076Z,17.43
2017-12-13T19:06:32.646Z,17.47
2017-12-13T19:09:00.178Z,16.60
2017-12-13T19:11:27.712Z,16.70
2017-12-13T19:13:55.251Z,16.20
2017-12-13T19:16:22.793Z,16.87
2017-12-13T19:18:50.308Z,15.50
2017-12-13T19:21:17.883Z,15.80
2017-12-13T19:23:45.407Z,14.20
2017-12-13T19:26:12.934Z,15.70
2017-12-13T19:28:40.468Z,14.60
2017-12-13T19:31:08.025Z,13.17
2017-12-13T19:33:35.558Z,11.97
2017-12-13T19:36:03.072Z,14.97
2017-12-13T19:38:30.631Z,14.30
2017-12-13T19:40:58.139Z,14.60
2017-12-13T19:43:25.656Z,14.67
2017-12-13T19:45:53.244Z,15.77
2017-12-13T19:48:20.779Z,13.80
2017-12-13T19:50:48.346Z,14.67
2017-12-13T19:53:15.924Z,14.27
2017-12-13T19:55:43.444Z,14.97
2017-12-13T19:58:10.964Z,15.47
2017-12-13T20:00:38.549Z,15.53
2017-12-13T20:03:06.116Z,14.70
2017-12-13T20:05:33.644Z,15.00
2017-12-13T20:08:01.191Z,14.37
2017-12-13T20:10:28.775Z,14.00
2017-12-13T20:12:56.300Z,13.73
2017-12-13T20:15:23.821Z,14.07
2017-12-13T20:17:51.406Z,13.20
2017-12-13T20:20:18.938Z,13.00
2017-12-13T20:22:46.469Z,12.30
2017-12-13T20:25:14.039Z,11.83
2017-12-13T20:27:41.555Z,9.70
2017-12-13T20:30:09.083Z,13.67
2017-12-13T20:32:36.624Z,12.00
2017-12-13T20:35:04.196Z,12.10
2017-12-13T20:37:31.744Z,10.23
2017-12-13T20:39:59.269Z,10.80
2017-12-13T20:42:26.833Z,10.37
2017-12-13T20:44:54.341Z,10.67
2017-12-13T20:47:21.864Z,10.57
2017-12-13T20:49:49.405Z,8.77
2017-12-13T20:52:16.924Z,10.33
2017-12-13T20:54:44.485Z,11.00
2017-12-13T20:57:11.999Z,10.60
2017-12-13T20:59:39.545Z,9.60
2017-12-13T21:02:07.054Z,10.17
2017-12-13T21:04:34.625Z,9.40
2017-12-13T21:07:02.152Z,9.30
2017-12-13T21:09:29.663Z,9.30
2017-12-13T21:11:57.223Z,8.23
2017-12-13T21:14:24.736Z,10.73
2017-12-13T21:16:52.252Z,8.77
2017-12-13T21:19:19.826Z,10.70
2017-12-13T21:21:47.341Z,9.33
2017-12-13T21:24:14.892Z,9.50
2017-12-13T21:26:42.565Z,9.93
2017-12-13T21:29:10.085Z,10.57
2017-12-13T21:31:37.587Z,9.10
2017-12-13T21:34:05.150Z,9.90
2017-12-13T21:36:32.666Z,10.13
2017-12-13T21:39:00.189Z,8.30
2017-12-13T21:41:27.839Z,7.80
2017-12-13T21:43:55.377Z,7.57
2017-12-13T21:46:22.888Z,9.53
2017-12-13T21:48:51.348Z,10.00
2017-12-13T21:51:18.874Z,9.03
2017-12-13T21:53:46.397Z,8.10
2017-12-13T21:56:13.966Z,8.00
2017-12-13T21:58:41.488Z,8.10
2017-12-13T22:01:08.996Z,6.23
2017-12-13T22:03:36.539Z,6.03
2017-12-13T22:06:04.055Z,6.47
2017-12-13T22:08:31.616Z,5.30
2017-12-13T22:10:59.158Z,5.40
2017-12-13T22:13:26.687Z,4.80
2017-12-13T22:15:54.199Z,3.80
2017-12-13T22:18:21.748Z,5.23
2017-12-13T22:20:49.277Z,5.93
2017-12-13T22:23:16.798Z,4.60
2017-12-13T22:25:44.391Z,4.37
2017-12-13T22:28:11.905Z,4.47
2017-12-13T22:30:39.413Z,4.40
2017-12-13T22:33:06.949Z,4.07
2017-12-13T22:35:34.466Z,4.07
2017-12-13T22:38:02.002Z,4.30
2017-12-13T22:40:29.516Z,3.30
2017-12-13T22:42:57.075Z,3.20
2017-12-13T22:45:24.593Z,3.73
2017-12-13T22:47:52.147Z,3.50
2017-12-13T22:50:19.773Z,4.10
2017-12-13T22:52:47.294Z,3.10
2017-12-13T22:55:14.838Z,3.40
2017-12-13T22:57:42.384Z,2.80
2017-12-13T23:00:09.972Z,2.80
2017-12-13T23:02:37.547Z,3.10
2017-12-13T23:05:05.047Z,2.57
2017-12-13T23:07:32.579Z,2.87
2017-12-13T23:10:00.093Z,2.83
2017-12-13T23:12:27.659Z,3.60
2017-12-13T23:14:55.172Z,3.03
2017-12-13T23:17:23.598Z,3.03
2017-12-13T23:19:51.152Z,1.60
2017-12-13T23:22:18.714Z,2.50
2017-12-13T23:24:46.228Z,2.00
2017-12-13T23:27:13.794Z,3.00
2017-12-13T23:29:41.325Z,1.80
2017-12-13T23:32:08.890Z,3.20
2017-12-13T23:34:36.388Z,2.90
2017-12-13T23:37:03.891Z,2.43
2017-12-13T23:39:31.451Z,2.80
2017-12-13T23:41:58.956Z,2.57
2017-12-13T23:44:26.455Z,2.70
2017-12-13T23:46:54.018Z,3.70
2017-12-13T23:49:21.530Z,3.30
2017-12-13T23:51:49.068Z,3.13
2017-12-13T23:54:16.603Z,3.30
2017-12-13T23:56:44.121Z,3.43
2017-12-13T23:59:11.680Z,2.33
